Observations for Trim Patrick St
| Time | AQI | Temp °C | Hum % | Pres Pa | CO μg/m³ | H₂S μg/m³ | NO μg/m³ | NO₂ μg/m³ | O₃ μg/m³ | SO₂ μg/m³ | PM1 μg/m³ | PM2.5 μg/m³ | PM10 μg/m³ |
|---|---|---|---|---|---|---|---|---|---|---|---|---|---|
| Saturday 1 August 2026 | |||||||||||||
| 07:17 | 2 | 12.6 | 80 | 38,460 | 0.52 | 0.01 | 3.46 | 19.65 | 14.67 | 0 | 8.86 | 13.63 | 14.99 |
| 07:16 | 2 | 12.6 | 80 | 38,460 | 0.51 | 0 | 3.49 | 17.88 | 12.07 | 0 | 7.14 | 11.51 | 12.66 |
| 07:15 | 2 | 12.5 | 79 | 38,460 | 0.51 | 1.44 | 3.64 | 22.32 | 34.45 | 0 | 9.71 | 12.98 | 14.28 |
| 07:14 | 2 | 12.5 | 81 | 38,460 | 0.52 | 0.97 | 3.52 | 20.86 | 19.28 | 0 | 8 | 12.87 | 14.16 |
| 07:13 | 2 | 12.4 | 81 | 38,460 | 0.52 | 0.68 | 3.42 | 16.61 | 15.21 | 0 | 8 | 13.57 | 14.92 |
| 07:12 | 2 | 12.4 | 81 | 38,460 | 0.51 | 2.34 | 3.44 | 29.38 | 26.63 | 0 | 8 | 12.86 | 14.15 |
| 07:11 | 2 | 12.3 | 81 | 38,460 | 0.53 | 1.59 | 3.48 | 24.26 | 22.37 | 0 | 9.71 | 13.56 | 14.91 |
| 07:10 | 2 | 12.3 | 81 | 38,460 | 0.53 | 0.45 | 3.42 | 19.18 | 18.18 | 0 | 7.14 | 10.74 | 11.81 |
| 07:09 | 2 | 12.2 | 81 | 38,460 | 0.53 | 1.22 | 3.5 | 19.87 | 20.4 | 0 | 8.86 | 13.53 | 14.88 |
| 07:08 | 2 | 12.2 | 81 | 38,460 | 0.52 | 0.84 | 3.61 | 20.46 | 15.64 | 0 | 9.71 | 14.24 | 15.66 |
| 07:07 | 2 | 12.1 | 81 | 38,460 | 0.53 | 1.43 | 3.59 | 22.32 | 20.26 | 0 | 9.71 | 15.59 | 17.14 |
| 07:06 | 2 | 12 | 81 | 38,460 | 0.53 | 1.32 | 3.68 | 21.03 | 30.2 | 0 | 8.86 | 14.19 | 15.61 |
| 07:05 | 2 | 12 | 82 | 38,460 | 0.53 | 1.71 | 3.72 | 19.25 | 16.3 | 0 | 8.86 | 14.86 | 16.35 |
| 07:04 | 2 | 11.9 | 81 | 38,460 | 0.53 | 2.51 | 3.73 | 32.8 | 41.5 | 0 | 10.57 | 15.6 | 17.16 |
| 07:03 | 2 | 11.9 | 81 | 38,460 | 0.53 | 2.92 | 3.74 | 24.2 | 33.14 | 0 | 8.86 | 16.32 | 17.96 |
| 07:02 | 2 | 11.8 | 82 | 38,460 | 0.52 | 2.58 | 3.81 | 20.3 | 18.03 | 0 | 9.71 | 19.74 | 21.71 |
| 07:01 | 2 | 11.7 | 82 | 38,460 | 0.55 | 3.15 | 3.77 | 29.13 | 43.45 | 0 | 10.57 | 16.23 | 17.86 |
| 07:00 | 2 | 11.7 | 82 | 38,460 | 0.51 | 3.77 | 3.83 | 24.43 | 25.43 | 0 | 11.43 | 16.27 | 17.9 |
| 06:59 | 2 | 11.6 | 82 | 38,460 | 0.53 | 3.33 | 3.84 | 29.19 | 36.84 | 0 | 10.57 | 16.23 | 17.86 |
| 06:58 | 2 | 11.5 | 82 | 38,460 | 0.53 | 3.63 | 3.9 | 29.23 | 38.23 | 0 | 9.71 | 16.24 | 17.87 |